Here is the Quick Look data you requested

The Data originates at the National Weather Service, and is made available here by the UAlbany Department of Atmospheric and Environmental Sciences

Surface Observations

KESN 202350Z 22004KT 10SM SCT250 33/26 A2990=
KESN 210052Z 19003KT 10SM SCT250 32/27 A2989=
KESN 210150Z 18004KT 10SM SKC 31/27 A2990=
KESN 210220Z AUTO 20004KT 10SM CLR 31/27 A2990 RMK AO2 T03120271=
KESN 210240Z AUTO 21003KT 10SM CLR 31/27 A2991 RMK AO2 T03050271=
KESN 210300Z AUTO 00000KT 10SM CLR 31/27 A2990 RMK AO2 T03050273=
KESN 210320Z AUTO 00000KT 10SM CLR 30/27 A2990 RMK AO2 T03040272=
KESN 210340Z AUTO 16003KT 10SM CLR 30/27 A2989 RMK AO2 T03020271=
KESN 210400Z AUTO 17003KT 10SM CLR 30/27 A2989 RMK AO2 T03000271=
KESN 210420Z AUTO 19003KT 10SM CLR 30/27 A2990 RMK AO2 T02980270=
KESN 210440Z AUTO 20003KT 10SM CLR 30/27 A2989 RMK AO2 T02950272=
KESN 210500Z AUTO 00000KT 10SM CLR 30/27 A2989 RMK AO2 T02950274=
KESN 210520Z AUTO 00000KT 10SM CLR 30/28 A2990 RMK AO2 T02950275=
KESN 210540Z AUTO 00000KT 10SM CLR 30/27 A2990 RMK AO2 T02980272=
KESN 210600Z AUTO 00000KT 10SM CLR 30/26 A2990 RMK AO2 T02990263=
KESN 210620Z AUTO 00000KT 10SM CLR 30/26 A2990 RMK AO2 T02960262=
KESN 210640Z AUTO 00000KT 10SM CLR 29/26 A2990 RMK AO2 T02930260=
KESN 210700Z AUTO 29003KT 10SM CLR 29/25 A2989 RMK AO2 T02900252=
KESN 210720Z AUTO 00000KT 10SM CLR 28/25 A2989 RMK AO2 T02840250=
KESN 210740Z AUTO 00000KT 10SM CLR 29/25 A2989 RMK AO2 T02860248=
KESN 210800Z AUTO 00000KT 10SM CLR 29/25 A2989 RMK AO2 T02850248=
KESN 210820Z AUTO 00000KT 10SM CLR 29/25 A2989 RMK AO2 T02860250=
KESN 210840Z AUTO 00000KT 10SM CLR 28/25 A2988 RMK AO2 T02750248=
KESN 210900Z AUTO 00000KT 10SM CLR 28/25 A2987 RMK AO2 T02780249=
KESN 210920Z AUTO 00000KT 10SM CLR 27/25 A2987 RMK AO2 T02720249=
KESN 210940Z AUTO 00000KT 10SM CLR 27/25 A2988 RMK AO2 T02730250=
KESN 210941Z AUTO 00000KT 10SM CLR 27/25 A2988 RMK AO2 T02720250=
KESN 210957Z 00000KT 10SM SKC 27/25 A2988=
KESN 211054Z 00000KT 10SM SCT100 28/26 A2990=
KESN 211156Z 00000KT 10SM SCT100 30/26 A2993=
KESN 211250Z 28008KT 10SM SKC 32/25 A2993=
KESN 211358Z 31009G14KT 10SM SKC 34/25 A2993=
KESN 211448Z 29010KT 10SM SKC 34/25 A2993=
KESN 211550Z 30006KT 10SM SKC 35/25 A2993=
KESN 211650Z 27004KT 10SM SKC 36/24 A2992=
KESN 211753Z 25005KT 10SM SCT120 37/23 A2991=
KESN 211853Z 24006KT 10SM FEW050 37/24 A2990=
KESN 211953Z 22008KT 10SM FEW050 37/23 A2989=
KESN 212050Z 20008KT 10SM FEW050 37/23 A2988=
KESN 212150Z 22004KT 10SM SKC 36/24 A2987=
KESN 212245Z 21005KT 10SM SKC 36/24 A2987=
KESN 212350Z 21004KT 10SM SCT200 33/24 A2988=
KESN 220048Z 17004KT 10SM SKC 33/26 A2989=
KESN 220150Z 27004KT 10SM SKC 31/27 A2990=
KESN 220220Z AUTO 24003KT 10SM CLR 31/27 A2990 RMK AO2 T03060268=
KESN 220240Z AUTO 00000KT 10SM CLR 31/27 A2991 RMK AO2 T03100271=
KESN 220300Z AUTO 33004KT 10SM CLR 30/27 A2991 RMK AO2 T02970268=
KESN 220320Z AUTO 34004KT 10SM CLR 30/24 A2992 RMK AO2 T03000238=
KESN 220340Z AUTO 32003KT 10SM CLR 30/23 A2991 RMK AO2 T02980230=
KESN 220400Z AUTO 22003KT 10SM CLR 29/23 A2990 RMK AO2 T02890231=
KESN 220420Z AUTO 00000KT 10SM CLR 28/24 A2990 RMK AO2 T02820236=
KESN 220440Z AUTO 00000KT 10SM CLR 27/24 A2991 RMK AO2 T02730236=
KESN 220500Z AUTO 29003KT 10SM CLR 28/24 A2991 RMK AO2 T02760236=
KESN 220520Z AUTO 00000KT 10SM CLR 27/24 A2992 RMK AO2 T02680236=
KESN 220540Z AUTO 00000KT 10SM CLR 27/24 A2992 RMK AO2 T02710236=
KESN 220600Z AUTO 00000KT 10SM CLR 28/23 A2992 RMK AO2 T02750234=
KESN 220620Z AUTO 00000KT 10SM CLR 27/23 A2992 RMK AO2 T02680233=